createdAt,value
2022-08-01T00:01:49.661Z,0.41
2022-08-01T00:06:49.556Z,0.38
2022-08-01T00:11:49.549Z,0.37
2022-08-01T00:16:49.563Z,0.39
2022-08-01T00:21:51.913Z,0.43
2022-08-01T00:26:49.602Z,0.44
2022-08-01T00:31:49.601Z,0.34
2022-08-01T00:36:49.567Z,0.38
2022-08-01T00:41:49.576Z,0.41
2022-08-01T00:46:49.564Z,0.43
2022-08-01T00:51:49.598Z,0.4
2022-08-01T00:56:49.578Z,0.42
2022-08-01T01:01:49.961Z,0.53
2022-08-01T01:06:49.588Z,0.52
2022-08-01T01:11:49.600Z,0.54
2022-08-01T01:16:49.622Z,0.57
2022-08-01T01:21:49.643Z,0.59
2022-08-01T01:26:49.628Z,0.6
2022-08-01T01:31:49.586Z,0.54
2022-08-01T01:36:49.605Z,0.45
2022-08-01T01:41:49.611Z,0.47
2022-08-01T01:52:00.001Z,0.43
2022-08-01T01:56:49.610Z,0.39
2022-08-01T02:01:58.954Z,0.35
2022-08-01T02:06:49.646Z,0.34
2022-08-01T02:11:59.338Z,0.29
2022-08-01T02:16:49.638Z,0.3
2022-08-01T02:21:49.650Z,0.27
2022-08-01T02:26:49.624Z,0.26
2022-08-01T02:31:49.631Z,0.36
2022-08-01T02:36:49.630Z,0.26
2022-08-01T02:41:49.618Z,0.24
2022-08-01T02:46:49.625Z,0.27
2022-08-01T02:51:49.663Z,0.3
2022-08-01T02:56:49.670Z,0.33
2022-08-01T03:01:49.670Z,0.49
2022-08-01T03:06:49.638Z,0.47
2022-08-01T03:11:49.642Z,0.49
2022-08-01T03:16:49.638Z,0.56
2022-08-01T03:21:49.650Z,0.56
2022-08-01T03:26:49.639Z,0.6
2022-08-01T03:31:49.653Z,0.62
2022-08-01T03:36:49.883Z,0.56
2022-08-01T03:46:49.650Z,0.45
2022-08-01T03:51:49.692Z,0.41
2022-08-01T03:56:49.699Z,0.36
2022-08-01T04:01:49.792Z,0.38
2022-08-01T04:06:49.666Z,0.33
2022-08-01T04:11:49.673Z,0.31
2022-08-01T04:16:49.701Z,0.47
2022-08-01T04:21:49.670Z,0.48
2022-08-01T04:26:49.684Z,0.32
2022-08-01T04:31:49.686Z,0.42
2022-08-01T04:36:49.685Z,0.49
2022-08-01T04:41:49.689Z,0.35
2022-08-01T04:46:49.695Z,0.36
2022-08-01T04:51:49.728Z,0.31
2022-08-01T04:56:51.534Z,0.41
2022-08-01T05:01:49.783Z,0.61
2022-08-01T05:06:49.735Z,0.67
2022-08-01T05:11:49.701Z,0.85
2022-08-01T05:16:49.738Z,1.59
2022-08-01T05:21:49.739Z,9.86
2022-08-01T05:26:49.742Z,2.68
2022-08-01T05:31:49.715Z,3.29
2022-08-01T05:36:51.989Z,3.96
2022-08-01T05:41:49.710Z,3.9
2022-08-01T05:46:49.722Z,4.98
2022-08-01T05:51:49.721Z,5.41
2022-08-01T05:56:49.728Z,5.21
2022-08-01T06:01:49.824Z,5.13
2022-08-01T06:06:49.720Z,4.09
2022-08-01T06:11:49.732Z,3.27
2022-08-01T06:16:49.735Z,3.19
2022-08-01T06:21:49.752Z,3.18
2022-08-01T06:26:49.740Z,3.76
2022-08-01T06:31:49.745Z,3.82
2022-08-01T06:36:49.746Z,3.8
2022-08-01T06:46:49.747Z,3.85
2022-08-01T06:51:49.779Z,3.64
2022-08-01T06:56:49.761Z,5.73
2022-08-01T07:01:49.782Z,6.65
2022-08-01T07:06:49.799Z,5.89
2022-08-01T07:11:49.791Z,6.65
2022-08-01T07:16:49.796Z,6.76
2022-08-01T07:21:50.169Z,7
2022-08-01T07:26:52.874Z,6.91
2022-08-01T07:31:49.793Z,8.16
2022-08-01T07:36:49.792Z,8.21
2022-08-01T07:41:53.655Z,7.68
2022-08-01T07:46:49.829Z,7.04
2022-08-01T07:52:02.553Z,8.13
2022-08-01T07:56:49.772Z,8.04
2022-08-01T08:01:49.855Z,7.42
2022-08-01T08:06:49.808Z,8.15
2022-08-01T08:11:49.790Z,7.57
2022-08-01T08:16:49.811Z,8.05
2022-08-01T08:21:49.802Z,7.44
2022-08-01T08:26:52.181Z,6.53
2022-08-01T08:31:50.592Z,7.43
2022-08-01T08:36:49.819Z,6.4
2022-08-01T08:41:50.091Z,5.71
2022-08-01T08:46:49.817Z,6.23
2022-08-01T08:51:49.836Z,5.44
2022-08-01T08:56:49.821Z,4.12
2022-08-01T09:01:49.837Z,3.58
2022-08-01T09:06:49.810Z,3.07
2022-08-01T09:11:54.928Z,3.63
2022-08-01T09:16:49.825Z,3.72
2022-08-01T09:21:49.835Z,3.95
2022-08-01T09:26:49.829Z,3.62
2022-08-01T09:31:49.833Z,3.27
2022-08-01T09:36:49.898Z,3.07
2022-08-01T09:41:49.865Z,3.15
2022-08-01T09:46:49.831Z,2.98
2022-08-01T09:51:58.654Z,2.59
2022-08-01T09:56:49.854Z,3.04
2022-08-01T10:01:49.841Z,3.26
2022-08-01T10:06:49.843Z,3.15
2022-08-01T10:11:49.898Z,2.49
2022-08-01T10:16:53.098Z,2.15
2022-08-01T10:21:57.570Z,1.88
2022-08-01T10:26:49.866Z,2.01
2022-08-01T10:31:50.397Z,1.81
2022-08-01T10:36:49.871Z,1.64
2022-08-01T10:41:49.887Z,1.73
2022-08-01T10:46:49.881Z,1.83
2022-08-01T10:51:51.909Z,1.58
2022-08-01T10:56:49.881Z,1.75
2022-08-01T11:01:50.055Z,1.55
2022-08-01T11:06:49.880Z,1.71
2022-08-01T11:11:49.888Z,1.43
2022-08-01T11:16:49.879Z,1.47
2022-08-01T11:21:56.728Z,1.82
2022-08-01T11:26:49.909Z,2.07
2022-08-01T11:36:58.678Z,2.41
2022-08-01T11:41:49.915Z,2.55
2022-08-01T11:46:49.941Z,2.16
2022-08-01T11:51:49.916Z,1.92
2022-08-01T11:56:49.918Z,1.9
2022-08-01T12:01:49.939Z,1.67
2022-08-01T12:06:50.258Z,1.48
2022-08-01T12:11:49.925Z,1.25
2022-08-01T12:16:49.935Z,1.33
2022-08-01T12:21:53.247Z,1.18
2022-08-01T12:26:49.972Z,1.17
2022-08-01T12:31:49.950Z,1.37
2022-08-01T12:36:49.973Z,1.56
2022-08-01T12:41:49.959Z,1.66
2022-08-01T12:46:49.977Z,1.55
2022-08-01T12:51:55.368Z,1.51
2022-08-01T12:56:49.983Z,1.78
2022-08-01T13:01:49.999Z,1.63
2022-08-01T13:06:49.995Z,1.51
2022-08-01T13:11:58.854Z,1.56
2022-08-01T13:16:57.032Z,1.42
2022-08-01T13:21:53.390Z,1.27
2022-08-01T13:26:49.965Z,1.17
2022-08-01T13:31:49.975Z,1.36
2022-08-01T13:36:49.981Z,1.47
2022-08-01T13:41:49.973Z,1.37
2022-08-01T13:46:51.396Z,1.34
2022-08-01T13:51:49.985Z,1.5
2022-08-01T13:56:49.986Z,1.42
2022-08-01T14:01:50.024Z,1.26
2022-08-01T14:06:49.999Z,1.31
2022-08-01T14:11:49.999Z,1.29
2022-08-01T14:16:49.996Z,1.48
2022-08-01T14:21:50.010Z,1.55
2022-08-01T14:26:49.992Z,1.34
2022-08-01T14:31:50.014Z,1.37
2022-08-01T14:36:50.009Z,1.54
2022-08-01T14:41:50.022Z,1.27
2022-08-01T14:46:57.470Z,1.68
2022-08-01T14:51:50.017Z,1.67
2022-08-01T14:56:50.038Z,1.79
2022-08-01T15:01:50.072Z,1.18
2022-08-01T15:06:50.114Z,1.33
2022-08-01T15:11:50.048Z,1.34
2022-08-01T15:16:50.052Z,1.41
2022-08-01T15:21:50.039Z,1.32
2022-08-01T15:26:50.050Z,1.48
2022-08-01T15:31:50.040Z,1.6
2022-08-01T15:36:50.034Z,1.41
2022-08-01T15:41:50.060Z,1.55
2022-08-01T15:46:50.051Z,1.45
2022-08-01T15:51:50.091Z,1.26
2022-08-01T15:56:50.087Z,1.5
2022-08-01T16:01:51.142Z,1.45
2022-08-01T16:06:50.066Z,1.25
2022-08-01T16:11:50.664Z,1.44
2022-08-01T16:16:50.102Z,1.35
2022-08-01T16:21:50.090Z,1.16
2022-08-01T16:26:50.071Z,1.15
2022-08-01T16:31:59.145Z,1.24
2022-08-01T16:36:50.083Z,1.1
2022-08-01T16:41:50.078Z,1.21
2022-08-01T16:46:50.083Z,1.09
2022-08-01T16:51:50.087Z,1
2022-08-01T16:56:52.088Z,1.24
2022-08-01T17:01:53.496Z,1.33
2022-08-01T17:06:50.087Z,1.15
2022-08-01T17:11:50.131Z,1.16
2022-08-01T17:16:50.103Z,1.1
2022-08-01T17:21:50.108Z,1.06
2022-08-01T17:26:50.107Z,0.97
2022-08-01T17:31:50.117Z,0.98
2022-08-01T17:36:50.135Z,1.05
2022-08-01T17:41:50.120Z,1.03
2022-08-01T17:46:50.156Z,1.1
2022-08-01T17:51:50.128Z,1.14
2022-08-01T17:56:50.142Z,1.21
2022-08-01T18:01:50.241Z,1.34
2022-08-01T18:06:58.610Z,1.4
2022-08-01T18:11:50.169Z,1.31
2022-08-01T18:16:50.135Z,1.39
2022-08-01T18:21:50.139Z,1.45
2022-08-01T18:26:50.156Z,1.44
2022-08-01T18:31:50.146Z,1.61
2022-08-01T18:36:50.141Z,1.59
2022-08-01T18:41:50.162Z,1.67
2022-08-01T18:46:50.143Z,1.67
2022-08-01T18:51:50.191Z,1.79
2022-08-01T18:56:50.182Z,1.82
2022-08-01T19:01:50.202Z,1.94
2022-08-01T19:06:50.153Z,1.77
2022-08-01T19:11:50.166Z,1.88
2022-08-01T19:16:50.197Z,1.86
2022-08-01T19:21:50.192Z,1.86
2022-08-01T19:26:50.179Z,2.11
2022-08-01T19:31:50.192Z,2.12
2022-08-01T19:36:50.173Z,2.11
2022-08-01T19:41:50.170Z,2.21
2022-08-01T19:46:50.180Z,2.31
2022-08-01T19:51:50.185Z,2.27
2022-08-01T19:56:50.213Z,2.23
2022-08-01T20:01:50.227Z,2.16
2022-08-01T20:06:50.192Z,2.17
2022-08-01T20:11:50.196Z,2.17
2022-08-01T20:16:50.191Z,2.07
2022-08-01T20:22:02.207Z,2.08
2022-08-01T20:26:50.193Z,1.94
2022-08-01T20:31:50.223Z,1.91
2022-08-01T20:36:54.610Z,1.87
2022-08-01T20:41:50.232Z,1.94
2022-08-01T20:46:50.222Z,1.86
2022-08-01T20:51:50.211Z,1.9
2022-08-01T20:56:50.222Z,1.88
2022-08-01T21:01:50.209Z,1.96
2022-08-01T21:06:50.227Z,1.89
2022-08-01T21:11:50.222Z,1.82
2022-08-01T21:16:50.230Z,1.98
2022-08-01T21:21:50.231Z,1.98
2022-08-01T21:26:50.239Z,2.02
2022-08-01T21:31:50.236Z,2
2022-08-01T21:36:50.247Z,1.94
2022-08-01T21:41:55.909Z,1.93
2022-08-01T21:46:50.241Z,1.99
2022-08-01T21:51:51.744Z,2.27
2022-08-01T21:56:50.247Z,2.23
2022-08-01T22:01:51.302Z,2.04
2022-08-01T22:06:50.293Z,2.11
2022-08-01T22:11:59.499Z,2.51
2022-08-01T22:16:50.264Z,2.42
2022-08-01T22:21:50.269Z,2.64
2022-08-01T22:26:50.278Z,2.64
2022-08-01T22:31:50.281Z,2.98
2022-08-01T22:36:51.946Z,2.92
2022-08-01T22:42:01.125Z,2.66
2022-08-01T22:46:50.280Z,2.44
2022-08-01T22:51:54.762Z,2.35
2022-08-01T22:56:50.300Z,2.32
2022-08-01T23:01:50.528Z,2.43
2022-08-01T23:06:50.314Z,2.36
2022-08-01T23:11:50.286Z,2.43
2022-08-01T23:16:50.304Z,2.29
2022-08-01T23:21:50.310Z,2.18
2022-08-01T23:26:50.329Z,2.1
2022-08-01T23:31:51.745Z,2.22
2022-08-01T23:36:50.307Z,2.34
2022-08-01T23:41:57.525Z,2.41
2022-08-01T23:51:50.301Z,2.38
2022-08-01T23:56:50.300Z,2.41
